Time;durP1;ratioP1;P1;durP2;ratioP2;P2;SDS_P1;SDS_P2;PMS_P1;PMS_P2;Temp;Humidity;BMP_temperature;BMP_pressure;BME280_temperature;BME280_humidity;BME280_pressure;Samples;Min_cycle;Max_cycle;Signal;HPM_P1;HPM_P2
2020/12/30 00:00:00;;;;;;;20.07;11.93;;;4.10;99.90;;;;;;5003287;28;20704;-82
2020/12/30 00:02:29;;;;;;;18.67;12.30;;;4.00;99.90;;;;;;5037222;28;20175;-82
2020/12/30 00:04:58;;;;;;;21.10;12.70;;;4.00;99.90;;;;;;5035559;28;20186;-79
2020/12/30 00:07:23;;;;;;;19.07;12.53;;;4.00;99.90;;;;;;5018656;28;20185;-82
2020/12/30 00:09:49;;;;;;;21.37;13.50;;;3.90;99.90;;;;;;5017653;28;20181;-82
2020/12/30 00:12:16;;;;;;;21.63;11.90;;;4.00;99.90;;;;;;5019230;28;20198;-81
2020/12/30 00:14:42;;;;;;;21.87;12.87;;;4.00;99.90;;;;;;5001737;28;20175;-81
2020/12/30 00:17:07;;;;;;;20.07;12.30;;;4.00;99.90;;;;;;5020351;28;20175;-84
2020/12/30 00:19:33;;;;;;;18.43;12.90;;;4.00;99.90;;;;;;5036865;28;20167;-81
2020/12/30 00:21:58;;;;;;;20.43;12.43;;;3.90;99.90;;;;;;5019689;28;20278;-81
2020/12/30 00:24:24;;;;;;;20.43;11.80;;;3.90;99.90;;;;;;5020361;28;20281;-81
2020/12/30 00:26:49;;;;;;;16.97;12.00;;;4.00;99.90;;;;;;5017427;28;20206;-81
2020/12/30 00:29:15;;;;;;;18.60;12.53;;;4.00;99.90;;;;;;5016352;28;20546;-80
2020/12/30 00:31:40;;;;;;;19.53;12.63;;;4.00;99.90;;;;;;5017896;28;20700;-79
2020/12/30 00:34:06;;;;;;;21.30;12.70;;;3.90;99.90;;;;;;5034253;28;20222;-80
2020/12/30 00:36:39;;;;;;;19.07;12.00;;;3.90;99.90;;;;;;5018631;28;20527;-83
2020/12/30 00:39:06;;;;;;;19.23;11.53;;;4.00;99.90;;;;;;5018652;28;20175;-79
2020/12/30 00:41:31;;;;;;;17.63;12.37;;;4.00;99.90;;;;;;5033845;28;20239;-80
2020/12/30 00:43:57;;;;;;;18.73;11.83;;;4.00;99.90;;;;;;5018112;28;20210;-79
2020/12/30 00:46:23;;;;;;;22.63;12.93;;;3.90;99.90;;;;;;5016041;28;20186;-80
2020/12/30 00:48:48;;;;;;;18.70;11.90;;;4.00;99.90;;;;;;5033910;28;20181;-79
2020/12/30 00:51:14;;;;;;;21.60;13.50;;;4.00;99.90;;;;;;5016121;28;20233;-82
2020/12/30 00:53:40;;;;;;;22.00;14.03;;;4.00;99.90;;;;;;5015431;28;20588;-79
2020/12/30 00:56:09;;;;;;;19.40;12.23;;;4.00;99.90;;;;;;5015236;28;20233;-83
2020/12/30 00:58:35;;;;;;;17.20;12.40;;;3.90;99.90;;;;;;5013335;28;20230;-82
2020/12/30 01:01:02;;;;;;;23.07;13.00;;;3.90;99.90;;;;;;4997308;28;20245;-79
2020/12/30 01:03:28;;;;;;;18.47;12.10;;;4.00;99.90;;;;;;5009233;23;20238;-77
2020/12/30 01:05:53;;;;;;;18.70;12.97;;;4.00;99.90;;;;;;4979228;28;20680;-77
2020/12/30 01:08:19;;;;;;;19.63;12.80;;;4.00;99.90;;;;;;4995568;28;20689;-77
2020/12/30 01:10:45;;;;;;;20.87;12.00;;;4.00;99.90;;;;;;4979278;28;20172;-77
2020/12/30 01:13:10;;;;;;;19.40;12.27;;;3.90;99.90;;;;;;4979159;28;20718;-77
2020/12/30 01:15:36;;;;;;;19.27;12.93;;;4.00;99.90;;;;;;4995667;28;20169;-77
2020/12/30 01:18:01;;;;;;;20.57;12.73;;;4.00;99.90;;;;;;5011759;28;20182;-77
2020/12/30 01:20:27;;;;;;;20.80;12.13;;;4.00;99.90;;;;;;4995681;28;20243;-77
2020/12/30 01:22:52;;;;;;;18.77;11.63;;;3.90;99.90;;;;;;4998484;28;20180;-77
2020/12/30 01:25:18;;;;;;;21.30;12.27;;;4.00;99.90;;;;;;4999560;28;20182;-77
2020/12/30 01:27:43;;;;;;;20.77;11.57;;;4.00;99.90;;;;;;4998680;28;20190;-76
2020/12/30 01:30:09;;;;;;;21.53;12.50;;;4.00;99.90;;;;;;5015000;28;20179;-77
2020/12/30 01:32:35;;;;;;;20.60;12.90;;;4.00;99.90;;;;;;4998659;28;20207;-77
2020/12/30 01:35:00;;;;;;;17.47;12.37;;;4.00;99.90;;;;;;4998805;28;20195;-77
2020/12/30 01:37:26;;;;;;;19.47;13.07;;;3.90;99.90;;;;;;4998441;28;20341;-77
2020/12/30 01:39:51;;;;;;;18.23;11.53;;;4.00;99.90;;;;;;4998386;28;20216;-77
2020/12/30 01:42:17;;;;;;;23.00;13.37;;;3.90;99.90;;;;;;4998235;28;20180;-77
2020/12/30 01:44:42;;;;;;;19.10;12.77;;;3.80;99.90;;;;;;4998477;28;20202;-77
2020/12/30 01:47:08;;;;;;;18.50;11.57;;;3.80;99.90;;;;;;4998239;28;20179;-77
2020/12/30 01:49:33;;;;;;;25.30;13.67;;;3.70;99.90;;;;;;4998446;28;20267;-77
2020/12/30 01:51:59;;;;;;;21.97;13.07;;;3.60;99.90;;;;;;4998254;28;20290;-76
2020/12/30 01:54:25;;;;;;;21.37;13.10;;;3.50;99.90;;;;;;4998397;28;20199;-77
2020/12/30 01:56:50;;;;;;;20.10;12.47;;;3.50;99.90;;;;;;4998153;28;20198;-77
2020/12/30 01:59:17;;;;;;;21.93;12.87;;;3.40;99.90;;;;;;4998384;28;20643;-77
2020/12/30 02:01:53;;;;;;;23.33;13.80;;;3.40;99.90;;;;;;4998497;28;20198;-77
2020/12/30 02:04:23;;;;;;;21.97;13.23;;;3.30;99.90;;;;;;4999438;28;20765;-77
2020/12/30 02:06:48;;;;;;;21.03;14.00;;;3.20;99.90;;;;;;4998329;28;20191;-77
2020/12/30 02:09:14;;;;;;;20.13;13.23;;;3.10;99.90;;;;;;4998041;28;20608;-76
2020/12/30 02:11:39;;;;;;;20.83;13.67;;;3.20;99.90;;;;;;4997943;28;20203;-77
2020/12/30 02:14:06;;;;;;;23.13;14.17;;;3.10;99.90;;;;;;5014198;28;20290;-76
2020/12/30 02:16:45;;;;;;;22.40;13.67;;;3.10;99.90;;;;;;4997850;28;20199;-76
2020/12/30 02:19:10;;;;;;;24.23;13.63;;;3.10;99.90;;;;;;4999503;28;20176;-76
2020/12/30 02:21:36;;;;;;;22.00;13.33;;;3.10;99.90;;;;;;4997798;28;20179;-76
2020/12/30 02:24:01;;;;;;;21.87;13.87;;;3.00;99.90;;;;;;4997536;28;20202;-77
2020/12/30 02:26:27;;;;;;;24.63;13.73;;;3.00;99.90;;;;;;4997503;28;20187;-76
2020/12/30 02:28:52;;;;;;;23.43;14.17;;;3.00;99.90;;;;;;4997845;28;20191;-76
2020/12/30 02:31:18;;;;;;;23.67;13.83;;;2.90;99.90;;;;;;5014243;28;20176;-77
2020/12/30 02:33:43;;;;;;;21.77;13.10;;;2.90;99.90;;;;;;4996214;28;20206;-76
2020/12/30 02:36:09;;;;;;;26.00;14.00;;;2.90;99.90;;;;;;4997708;28;20175;-76
2020/12/30 02:38:34;;;;;;;23.20;14.30;;;2.90;99.90;;;;;;4997451;28;20172;-76
2020/12/30 02:41:00;;;;;;;24.97;13.87;;;2.80;99.90;;;;;;5013633;28;20639;-76
2020/12/30 02:43:26;;;;;;;22.90;14.53;;;2.70;99.90;;;;;;4997509;28;20266;-77
2020/12/30 02:45:51;;;;;;;23.23;14.50;;;2.60;99.90;;;;;;4997249;28;20187;-76
2020/12/30 02:48:17;;;;;;;20.90;13.77;;;2.60;99.90;;;;;;4998151;28;20179;-76
2020/12/30 02:50:42;;;;;;;23.57;13.93;;;2.50;99.90;;;;;;4998447;28;20613;-77
2020/12/30 02:53:08;;;;;;;23.73;14.60;;;2.50;99.90;;;;;;4999914;28;20246;-76
2020/12/30 02:55:33;;;;;;;21.57;13.33;;;2.50;99.90;;;;;;5000388;28;20202;-76
2020/12/30 02:57:59;;;;;;;21.20;13.80;;;2.50;99.90;;;;;;5017984;28;20246;-77
2020/12/30 03:00:24;;;;;;;22.67;14.00;;;2.50;99.90;;;;;;4997321;28;20616;-77
2020/12/30 03:02:50;;;;;;;25.60;13.37;;;2.50;99.90;;;;;;4997032;28;20554;-76
2020/12/30 03:05:15;;;;;;;20.83;13.27;;;2.50;99.90;;;;;;4996989;28;20554;-77
2020/12/30 03:07:41;;;;;;;26.33;13.77;;;2.40;99.90;;;;;;4996692;28;20548;-77
2020/12/30 03:10:07;;;;;;;21.20;13.80;;;2.40;99.90;;;;;;4996882;28;20571;-77
2020/12/30 03:12:32;;;;;;;22.17;13.70;;;2.40;99.90;;;;;;4996626;28;20200;-77
2020/12/30 03:14:58;;;;;;;22.97;13.17;;;2.30;99.90;;;;;;4996742;28;20200;-77
2020/12/30 03:17:23;;;;;;;19.47;13.37;;;2.30;99.90;;;;;;5012767;28;20172;-77
2020/12/30 03:19:49;;;;;;;24.23;14.03;;;2.20;99.90;;;;;;4996775;28;20183;-76
2020/12/30 03:22:14;;;;;;;21.93;13.70;;;2.20;99.90;;;;;;4996751;28;20266;-76
2020/12/30 03:24:40;;;;;;;27.80;13.27;;;2.20;99.90;;;;;;4996533;28;20202;-76
2020/12/30 03:27:05;;;;;;;19.87;13.37;;;2.10;99.90;;;;;;4996237;28;20176;-77
2020/12/30 03:29:31;;;;;;;22.47;13.73;;;2.00;99.90;;;;;;4996501;28;20766;-77
2020/12/30 03:31:56;;;;;;;22.33;13.57;;;1.90;99.90;;;;;;4996454;28;20278;-76
2020/12/30 03:34:22;;;;;;;27.13;14.57;;;1.90;99.90;;;;;;4996483;28;20283;-76
2020/12/30 03:36:47;;;;;;;22.27;13.63;;;1.80;99.90;;;;;;4995430;28;20639;-77
2020/12/30 03:39:13;;;;;;;23.93;13.60;;;1.80;99.90;;;;;;4996243;28;20696;-76
2020/12/30 03:41:38;;;;;;;21.30;13.53;;;1.70;99.90;;;;;;4996168;28;20182;-76
2020/12/30 03:44:04;;;;;;;25.50;14.27;;;1.70;99.90;;;;;;4995933;28;20242;-76
2020/12/30 03:46:29;;;;;;;23.57;13.53;;;1.60;99.90;;;;;;4995666;28;20187;-76
2020/12/30 03:48:55;;;;;;;22.20;13.10;;;1.60;99.90;;;;;;4996192;28;20263;-76
2020/12/30 03:51:21;;;;;;;20.80;13.70;;;1.60;99.90;;;;;;4996043;28;20258;-76
2020/12/30 03:53:46;;;;;;;23.30;13.50;;;1.70;99.90;;;;;;4995940;28;20190;-76
2020/12/30 03:56:12;;;;;;;22.97;13.70;;;1.70;99.90;;;;;;4995931;28;20183;-77
2020/12/30 03:58:37;;;;;;;21.70;14.00;;;1.60;99.90;;;;;;4996006;28;20603;-77
2020/12/30 04:01:03;;;;;;;19.13;12.83;;;1.60;99.90;;;;;;5012241;28;20176;-77
2020/12/30 04:03:28;;;;;;;20.20;13.37;;;1.60;99.90;;;;;;4995485;28;20234;-77
2020/12/30 04:05:54;;;;;;;22.77;13.40;;;1.60;99.90;;;;;;5012232;28;20186;-77
2020/12/30 04:08:19;;;;;;;23.47;13.80;;;1.60;99.90;;;;;;4995608;28;20172;-76
2020/12/30 04:10:45;;;;;;;20.90;13.13;;;1.60;99.90;;;;;;4995699;28;20185;-77
2020/12/30 04:13:11;;;;;;;20.23;13.20;;;1.60;99.90;;;;;;5011922;28;20293;-76
2020/12/30 04:15:36;;;;;;;18.70;12.77;;;1.60;99.90;;;;;;4995701;28;20172;-76
2020/12/30 04:18:02;;;;;;;20.57;12.73;;;1.50;99.90;;;;;;5011827;28;20241;-77
2020/12/30 04:20:27;;;;;;;21.07;12.97;;;1.40;99.90;;;;;;4995518;28;20175;-77
2020/12/30 04:22:53;;;;;;;21.63;13.87;;;1.50;99.90;;;;;;4995454;28;20184;-77
2020/12/30 04:25:18;;;;;;;21.77;14.43;;;1.70;99.90;;;;;;4995326;28;20198;-76
2020/12/30 04:27:44;;;;;;;22.63;13.90;;;1.70;99.90;;;;;;4995265;28;20184;-77
2020/12/30 04:30:09;;;;;;;26.43;14.90;;;1.70;99.90;;;;;;4995410;28;20188;-76
2020/12/30 04:32:35;;;;;;;25.07;13.60;;;1.70;99.90;;;;;;4995590;28;20214;-77
2020/12/30 04:35:00;;;;;;;22.47;14.00;;;1.60;99.90;;;;;;4995114;28;20282;-76
2020/12/30 04:37:26;;;;;;;21.63;13.60;;;1.60;99.90;;;;;;4995012;28;20190;-76
2020/12/30 04:39:52;;;;;;;24.07;13.57;;;1.50;99.90;;;;;;4995235;28;20206;-75
2020/12/30 04:42:22;;;;;;;22.47;14.40;;;1.40;99.90;;;;;;4995281;28;20219;-76
2020/12/30 04:44:49;;;;;;;22.47;14.63;;;1.50;99.90;;;;;;4995581;28;20294;-76
2020/12/30 04:47:14;;;;;;;22.43;13.80;;;1.60;99.90;;;;;;4994938;28;20179;-76
2020/12/30 04:49:40;;;;;;;21.73;13.53;;;1.50;99.90;;;;;;4995129;28;20643;-77
2020/12/30 04:52:05;;;;;;;22.77;14.03;;;1.60;99.90;;;;;;5011193;28;20580;-76
2020/12/30 04:54:32;;;;;;;24.17;14.23;;;1.60;99.90;;;;;;4995130;28;20822;-76
2020/12/30 04:57:01;;;;;;;21.20;13.93;;;1.50;99.90;;;;;;4994386;28;20255;-77
2020/12/30 04:59:28;;;;;;;20.43;13.83;;;1.50;99.90;;;;;;4995107;28;20250;-77
2020/12/30 05:02:09;;;;;;;23.30;14.10;;;1.50;99.90;;;;;;4995056;28;20191;-77
2020/12/30 05:04:35;;;;;;;21.37;13.23;;;1.40;99.90;;;;;;4995862;28;20226;-77
2020/12/30 05:07:11;;;;;;;23.10;14.27;;;1.50;99.90;;;;;;4994861;28;20229;-77
2020/12/30 05:09:38;;;;;;;27.73;14.57;;;1.40;99.90;;;;;;5011359;28;20206;-77
2020/12/30 05:12:13;;;;;;;24.10;14.63;;;1.40;99.90;;;;;;4994848;28;20599;-77
2020/12/30 05:14:39;;;;;;;21.17;13.73;;;1.50;99.90;;;;;;5011664;28;20205;-77
2020/12/30 05:17:05;;;;;;;22.07;13.50;;;1.50;99.90;;;;;;5011406;28;20180;-77
2020/12/30 05:19:31;;;;;;;23.37;13.83;;;1.40;99.90;;;;;;4994881;28;20270;-77
2020/12/30 05:21:56;;;;;;;23.40;14.67;;;1.30;99.90;;;;;;4995208;28;20226;-77
2020/12/30 05:24:22;;;;;;;21.83;13.57;;;1.30;99.90;;;;;;5011136;28;20202;-77
2020/12/30 05:26:48;;;;;;;23.60;14.10;;;1.20;99.90;;;;;;4994808;28;20188;-77
2020/12/30 05:29:14;;;;;;;22.67;13.90;;;1.10;99.90;;;;;;4994807;28;20187;-77
2020/12/30 05:31:39;;;;;;;27.23;14.73;;;1.20;99.90;;;;;;4994548;28;20735;-77
2020/12/30 05:34:05;;;;;;;23.40;15.30;;;1.20;99.90;;;;;;4994570;28;20724;-77
2020/12/30 05:36:30;;;;;;;27.23;14.87;;;1.30;99.90;;;;;;4994593;28;20182;-77
2020/12/30 05:38:56;;;;;;;27.40;15.63;;;1.30;99.90;;;;;;4994609;28;20183;-77
2020/12/30 05:41:21;;;;;;;25.37;15.73;;;1.30;99.90;;;;;;4994593;28;20176;-77
2020/12/30 05:43:47;;;;;;;28.53;15.93;;;1.40;99.90;;;;;;4994752;28;20298;-77
2020/12/30 05:46:28;;;;;;;24.80;15.40;;;1.40;99.90;;;;;;4994634;28;20257;-77
2020/12/30 05:48:54;;;;;;;26.80;15.17;;;1.40;99.90;;;;;;4994781;28;20282;-77
2020/12/30 05:51:29;;;;;;;22.10;15.07;;;1.30;99.90;;;;;;4994398;28;20259;-77
2020/12/30 05:54:11;;;;;;;27.40;16.63;;;1.30;99.90;;;;;;4994850;28;20202;-76
2020/12/30 05:56:38;;;;;;;26.10;15.13;;;1.40;99.90;;;;;;4994456;28;20171;-77
2020/12/30 05:59:04;;;;;;;27.67;16.47;;;1.40;99.90;;;;;;5011173;28;20210;-77
2020/12/30 06:01:30;;;;;;;29.83;18.00;;;1.50;99.90;;;;;;4994343;28;20674;-77
2020/12/30 06:03:55;;;;;;;28.10;16.93;;;1.60;99.90;;;;;;4994241;28;20687;-77
2020/12/30 06:06:21;;;;;;;30.30;16.83;;;1.70;99.90;;;;;;4994167;28;20186;-77
2020/12/30 06:08:50;;;;;;;28.23;17.20;;;1.80;99.90;;;;;;4996834;28;20190;-77
2020/12/30 06:11:25;;;;;;;27.13;16.00;;;1.90;99.90;;;;;;4998158;28;20648;-77
2020/12/30 06:13:52;;;;;;;26.10;16.20;;;1.90;99.90;;;;;;4997839;28;20703;-77
2020/12/30 06:16:19;;;;;;;28.60;17.10;;;2.00;99.90;;;;;;4998001;28;20180;-76
2020/12/30 06:18:45;;;;;;;28.27;15.63;;;2.10;99.90;;;;;;4981856;28;20186;-77
2020/12/30 06:21:11;;;;;;;30.20;16.63;;;2.10;99.90;;;;;;4981661;28;20182;-77
2020/12/30 06:23:36;;;;;;;31.43;16.27;;;2.10;99.90;;;;;;4997838;28;20195;-77
2020/12/30 06:26:03;;;;;;;29.13;16.83;;;2.10;99.90;;;;;;4997684;28;20258;-77
2020/12/30 06:28:28;;;;;;;27.57;16.30;;;2.20;99.90;;;;;;4998339;28;20239;-77
2020/12/30 06:30:54;;;;;;;25.13;16.03;;;2.30;99.90;;;;;;4998128;28;20215;-76
2020/12/30 06:33:22;;;;;;;28.37;16.87;;;2.30;99.90;;;;;;4997653;28;20239;-77
2020/12/30 06:35:53;;;;;;;25.50;16.40;;;2.30;99.90;;;;;;4997834;28;20185;-77
2020/12/30 06:38:26;;;;;;;24.67;14.90;;;2.30;99.90;;;;;;4982113;28;20322;-77
2020/12/30 06:41:02;;;;;;;27.20;16.70;;;2.40;99.90;;;;;;4998172;28;20180;-77
2020/12/30 06:43:40;;;;;;;27.00;16.63;;;2.40;99.90;;;;;;4984503;28;20210;-77
2020/12/30 06:46:09;;;;;;;30.23;17.10;;;2.40;99.90;;;;;;4977925;28;20211;-77
2020/12/30 06:48:55;;;;;;;28.90;18.30;;;2.50;99.90;;;;;;4978133;28;20555;-77
2020/12/30 06:51:21;;;;;;;26.73;16.23;;;2.60;99.90;;;;;;4993512;28;20235;-75
2020/12/30 06:53:50;;;;;;;25.70;16.07;;;2.60;99.90;;;;;;4977360;28;20196;-75
2020/12/30 06:56:34;;;;;;;24.90;16.37;;;2.60;99.90;;;;;;4977748;28;20168;-76
2020/12/30 06:58:59;;;;;;;29.97;16.53;;;2.60;99.90;;;;;;4994030;28;20582;-76
2020/12/30 07:01:25;;;;;;;26.60;15.83;;;2.60;99.90;;;;;;4979538;28;20176;-75
2020/12/30 07:03:50;;;;;;;27.43;15.57;;;2.70;99.90;;;;;;4976021;28;20715;-76
2020/12/30 07:06:23;;;;;;;26.10;16.67;;;2.80;99.90;;;;;;4997311;28;20232;-75
2020/12/30 07:08:49;;;;;;;27.80;16.37;;;2.70;99.90;;;;;;4977998;28;20219;-75
2020/12/30 07:11:36;;;;;;;28.13;16.80;;;2.70;99.90;;;;;;5012820;28;20487;-76
2020/12/30 07:14:14;;;;;;;24.53;16.47;;;2.80;99.90;;;;;;5010355;28;20242;-76
2020/12/30 07:16:40;;;;;;;27.73;16.40;;;2.70;99.90;;;;;;4995877;28;20523;-76
2020/12/30 07:19:19;;;;;;;28.83;17.87;;;2.80;99.90;;;;;;5005853;28;20191;-77
2020/12/30 07:21:49;;;;;;;24.87;16.73;;;2.80;99.90;;;;;;5005592;28;20279;-78
2020/12/30 07:24:21;;;;;;;24.37;16.57;;;2.90;99.90;;;;;;5008556;28;20191;-79
2020/12/30 07:26:48;;;;;;;26.23;15.87;;;2.90;99.90;;;;;;5012711;28;20176;-79
2020/12/30 07:29:14;;;;;;;25.60;16.33;;;2.90;99.90;;;;;;4996430;28;20171;-78
2020/12/30 07:31:39;;;;;;;29.80;17.17;;;2.90;99.90;;;;;;5012747;28;20206;-78
2020/12/30 07:34:19;;;;;;;25.67;16.63;;;2.90;99.90;;;;;;5012769;28;20196;-78
2020/12/30 07:36:45;;;;;;;28.57;17.57;;;3.00;99.90;;;;;;4996980;28;20188;-78
2020/12/30 07:39:11;;;;;;;27.90;17.20;;;3.00;99.90;;;;;;5009352;28;20168;-78
2020/12/30 07:41:37;;;;;;;26.03;17.27;;;3.00;99.90;;;;;;4999214;28;20234;-76
2020/12/30 07:44:05;;;;;;;22.80;15.60;;;3.00;99.90;;;;;;4996085;28;20663;-78
2020/12/30 07:46:31;;;;;;;23.13;14.50;;;3.00;99.90;;;;;;4997654;28;20207;-77
2020/12/30 07:49:10;;;;;;;24.30;15.00;;;3.10;99.90;;;;;;4976856;28;20181;-78
2020/12/30 07:51:36;;;;;;;24.03;14.83;;;3.10;99.90;;;;;;4976584;28;20176;-78
2020/12/30 07:54:01;;;;;;;21.67;13.87;;;3.10;99.90;;;;;;4976598;28;20196;-78
2020/12/30 07:56:27;;;;;;;24.00;15.20;;;3.10;99.90;;;;;;4985306;28;20187;-79
2020/12/30 07:58:53;;;;;;;24.13;14.70;;;3.20;99.90;;;;;;5001380;28;20188;-78
2020/12/30 08:01:18;;;;;;;24.37;15.07;;;3.20;99.90;;;;;;4966900;28;20184;-78
2020/12/30 08:03:44;;;;;;;25.00;16.20;;;3.20;99.90;;;;;;4992732;28;20225;-76
2020/12/30 08:06:10;;;;;;;25.33;15.33;;;3.20;99.90;;;;;;4987761;28;20199;-78
2020/12/30 08:08:41;;;;;;;27.40;14.87;;;3.20;99.90;;;;;;4992243;28;20242;-78
2020/12/30 08:11:07;;;;;;;25.50;16.23;;;3.20;99.90;;;;;;4982758;28;20179;-78
2020/12/30 08:13:32;;;;;;;26.50;15.97;;;3.20;99.90;;;;;;4999069;28;20589;-79
2020/12/30 08:15:58;;;;;;;25.50;17.27;;;3.30;99.90;;;;;;5000158;28;20184;-76
2020/12/30 08:18:23;;;;;;;26.53;16.70;;;3.30;99.90;;;;;;4996430;28;20187;-80
2020/12/30 08:20:49;;;;;;;27.63;16.73;;;3.30;99.90;;;;;;4993192;28;20243;-80
2020/12/30 08:23:18;;;;;;;27.00;16.97;;;3.30;99.90;;;;;;5008637;28;20262;-80
2020/12/30 08:25:48;;;;;;;28.67;17.77;;;3.30;99.90;;;;;;4991467;28;20183;-77
2020/12/30 08:28:13;;;;;;;24.57;16.70;;;3.30;99.90;;;;;;4978511;28;20178;-77
2020/12/30 08:30:39;;;;;;;30.77;17.47;;;3.30;99.90;;;;;;4981561;28;20678;-80
2020/12/30 08:33:07;;;;;;;27.53;18.00;;;3.40;99.90;;;;;;4995631;28;20238;-75
2020/12/30 08:35:36;;;;;;;29.63;17.67;;;3.40;99.90;;;;;;4995738;28;20553;-77
2020/12/30 08:38:15;;;;;;;29.33;16.57;;;3.50;99.90;;;;;;4982439;28;20195;-78
2020/12/30 08:40:41;;;;;;;25.53;16.10;;;3.50;99.90;;;;;;4995777;28;20223;-79
2020/12/30 08:43:20;;;;;;;25.03;16.23;;;3.70;99.90;;;;;;4996815;28;20183;-77
2020/12/30 08:46:01;;;;;;;24.93;15.07;;;3.80;99.90;;;;;;4980809;28;20195;-80
2020/12/30 08:48:27;;;;;;;24.03;15.93;;;3.70;99.90;;;;;;4995600;28;20243;-76
2020/12/30 08:50:52;;;;;;;26.27;15.30;;;3.70;99.90;;;;;;4994445;28;20689;-78
2020/12/30 08:53:38;;;;;;;24.37;16.43;;;3.80;99.90;;;;;;5004652;28;20246;-78
2020/12/30 08:56:07;;;;;;;26.10;16.20;;;3.70;99.90;;;;;;4982878;28;20277;-78
2020/12/30 08:58:33;;;;;;;26.33;16.83;;;3.70;99.90;;;;;;4979118;28;20192;-77
2020/12/30 09:00:58;;;;;;;25.53;15.90;;;3.70;99.90;;;;;;5014164;28;20168;-76
2020/12/30 09:03:28;;;;;;;23.63;15.47;;;3.80;99.90;;;;;;4979351;28;20219;-76
2020/12/30 09:05:55;;;;;;;26.90;15.70;;;3.80;99.90;;;;;;4977802;28;20188;-76
2020/12/30 09:08:27;;;;;;;22.97;15.17;;;3.80;99.90;;;;;;4996298;28;20239;-77
2020/12/30 09:10:53;;;;;;;25.20;14.90;;;3.80;99.90;;;;;;4963981;28;20196;-77
2020/12/30 09:13:21;;;;;;;26.67;15.90;;;3.90;99.90;;;;;;4965238;28;20210;-76
2020/12/30 09:15:54;;;;;;;23.17;15.30;;;3.90;99.90;;;;;;4991664;28;20643;-77
2020/12/30 09:18:20;;;;;;;29.03;15.97;;;3.90;99.90;;;;;;5000588;28;20177;-76
2020/12/30 09:20:45;;;;;;;25.10;14.80;;;3.80;99.90;;;;;;5010561;28;20187;-76
2020/12/30 09:23:11;;;;;;;25.97;15.73;;;4.00;99.90;;;;;;4978635;28;20204;-77
2020/12/30 09:25:39;;;;;;;23.77;14.77;;;4.00;99.90;;;;;;4995439;28;20176;-77
2020/12/30 09:28:14;;;;;;;23.43;15.13;;;3.90;99.90;;;;;;4994912;28;20197;-79
2020/12/30 09:30:40;;;;;;;26.53;15.47;;;4.00;99.90;;;;;;4994631;28;20190;-76
2020/12/30 09:33:25;;;;;;;29.07;16.43;;;4.10;99.90;;;;;;5011026;28;20241;-76
2020/12/30 09:35:51;;;;;;;28.67;15.67;;;4.10;99.90;;;;;;4994760;28;20186;-76
2020/12/30 09:38:17;;;;;;;24.17;15.07;;;4.20;99.90;;;;;;4994216;28;20199;-78
2020/12/30 09:40:43;;;;;;;27.73;16.07;;;4.20;99.90;;;;;;5010634;28;20275;-78
2020/12/30 09:43:11;;;;;;;32.10;16.43;;;4.20;99.90;;;;;;4995196;28;20187;-77
2020/12/30 09:45:36;;;;;;;25.60;15.70;;;4.30;99.90;;;;;;4998194;28;20222;-76
2020/12/30 09:48:19;;;;;;;24.97;16.40;;;4.20;99.90;;;;;;4998513;28;20185;-76
2020/12/30 09:50:45;;;;;;;25.97;15.60;;;4.20;99.90;;;;;;4999077;28;20172;-76
2020/12/30 09:53:11;;;;;;;27.83;17.00;;;4.30;99.90;;;;;;4998131;28;20218;-77
2020/12/30 09:55:37;;;;;;;28.13;17.60;;;4.30;99.90;;;;;;4997911;28;20172;-75
2020/12/30 09:58:03;;;;;;;28.27;17.37;;;4.40;99.90;;;;;;4997712;28;20198;-76
2020/12/30 10:00:28;;;;;;;26.23;16.50;;;4.40;99.90;;;;;;4998070;28;20217;-76
2020/12/30 10:02:54;;;;;;;26.90;16.90;;;4.40;99.90;;;;;;4997964;28;20211;-76
2020/12/30 10:05:19;;;;;;;27.40;17.03;;;4.50;99.90;;;;;;4998045;28;20194;-76
2020/12/30 10:07:45;;;;;;;28.10;16.90;;;4.40;99.90;;;;;;4997693;28;20601;-77
2020/12/30 10:10:10;;;;;;;27.33;16.63;;;4.40;99.90;;;;;;4997903;28;20206;-75
2020/12/30 10:12:39;;;;;;;26.80;16.37;;;4.50;99.90;;;;;;4997629;28;20214;-76
2020/12/30 10:15:06;;;;;;;26.20;16.80;;;4.50;99.90;;;;;;4998230;28;20695;-76
2020/12/30 10:17:32;;;;;;;27.60;16.43;;;4.50;99.90;;;;;;5013906;28;20204;-76
2020/12/30 10:19:57;;;;;;;26.07;16.33;;;4.50;99.90;;;;;;4997729;28;20257;-76
2020/12/30 10:22:23;;;;;;;24.27;15.97;;;4.50;99.90;;;;;;5013801;28;20183;-76
2020/12/30 10:24:49;;;;;;;28.23;16.57;;;4.50;99.90;;;;;;4997566;28;20211;-77
2020/12/30 10:27:15;;;;;;;25.20;15.80;;;4.40;99.90;;;;;;5013686;28;20190;-76
2020/12/30 10:29:41;;;;;;;28.97;16.40;;;4.40;99.90;;;;;;4997449;28;20547;-76
2020/12/30 10:32:06;;;;;;;26.30;15.07;;;4.40;99.90;;;;;;4997095;28;20206;-76
2020/12/30 10:34:35;;;;;;;28.20;16.20;;;4.40;99.90;;;;;;4997420;28;20206;-76
2020/12/30 10:37:04;;;;;;;28.90;16.97;;;4.30;99.90;;;;;;4997549;28;20178;-76
2020/12/30 10:39:30;;;;;;;28.30;16.73;;;4.30;99.90;;;;;;5013612;28;20257;-76
2020/12/30 10:41:56;;;;;;;25.70;17.57;;;4.30;99.90;;;;;;4997189;28;20259;-76
2020/12/30 10:44:22;;;;;;;30.80;17.50;;;4.30;99.90;;;;;;4997395;28;20204;-76
2020/12/30 10:46:48;;;;;;;28.67;17.27;;;4.30;99.90;;;;;;4997107;28;20175;-76
2020/12/30 10:49:13;;;;;;;28.53;17.13;;;4.30;99.90;;;;;;4997216;28;20183;-75
2020/12/30 10:51:39;;;;;;;28.13;16.73;;;4.30;99.90;;;;;;4996890;28;20561;-76
2020/12/30 10:54:06;;;;;;;28.43;16.53;;;4.40;99.90;;;;;;4996074;28;20192;-76
2020/12/30 10:56:31;;;;;;;26.30;15.83;;;4.40;99.90;;;;;;5012797;28;20174;-76
2020/12/30 10:58:57;;;;;;;25.33;14.50;;;4.40;99.90;;;;;;5013331;28;20173;-76
2020/12/30 11:01:22;;;;;;;25.53;14.10;;;4.40;99.90;;;;;;5013148;28;20204;-76
2020/12/30 11:03:48;;;;;;;27.23;16.20;;;4.50;99.90;;;;;;4999642;28;20222;-76
2020/12/30 11:06:13;;;;;;;24.43;16.37;;;4.50;99.90;;;;;;5019190;28;20202;-76
2020/12/30 11:08:39;;;;;;;27.63;16.03;;;4.60;99.90;;;;;;5002716;28;20207;-76
2020/12/30 11:11:05;;;;;;;24.80;15.67;;;4.60;99.90;;;;;;5001562;28;20187;-76
2020/12/30 11:13:31;;;;;;;25.53;15.70;;;4.60;99.90;;;;;;4996564;28;20686;-76
2020/12/30 11:15:56;;;;;;;28.40;16.73;;;4.70;99.90;;;;;;4996697;28;20211;-76
2020/12/30 11:18:22;;;;;;;25.60;16.40;;;4.70;99.90;;;;;;4996571;28;20599;-76
2020/12/30 11:20:47;;;;;;;28.33;17.43;;;4.70;99.90;;;;;;4996437;28;20217;-75
2020/12/30 11:23:13;;;;;;;27.17;16.97;;;4.70;99.90;;;;;;4996404;28;20211;-76
2020/12/30 11:25:42;;;;;;;27.63;17.60;;;4.80;99.90;;;;;;4996634;28;20183;-76
2020/12/30 11:28:07;;;;;;;24.83;16.37;;;4.80;99.90;;;;;;5012304;28;20207;-76
2020/12/30 11:30:33;;;;;;;26.37;15.77;;;4.90;99.90;;;;;;4996467;28;20626;-76
2020/12/30 11:32:59;;;;;;;25.30;16.27;;;4.90;99.90;;;;;;5012577;28;20211;-76
2020/12/30 11:35:27;;;;;;;23.77;15.53;;;4.90;99.90;;;;;;5012327;28;20175;-76
2020/12/30 11:37:53;;;;;;;27.77;16.00;;;5.00;99.90;;;;;;4996039;28;20275;-76
2020/12/30 11:40:19;;;;;;;26.13;16.93;;;4.90;99.90;;;;;;4996310;28;20310;-76
2020/12/30 11:42:44;;;;;;;26.43;16.80;;;4.90;99.90;;;;;;4997798;28;20206;-76
2020/12/30 11:45:10;;;;;;;27.33;17.27;;;4.90;99.90;;;;;;4998510;28;20195;-76
2020/12/30 11:47:35;;;;;;;32.53;18.27;;;4.80;99.90;;;;;;4998050;28;20572;-76
2020/12/30 11:50:01;;;;;;;27.67;18.33;;;4.70;99.90;;;;;;5015183;28;20259;-76
2020/12/30 11:52:26;;;;;;;29.07;17.87;;;4.60;99.90;;;;;;4997201;28;20207;-76
2020/12/30 11:54:52;;;;;;;30.93;18.03;;;4.50;99.90;;;;;;5012212;28;20218;-76
2020/12/30 11:57:18;;;;;;;32.67;18.37;;;4.50;99.90;;;;;;4995595;28;20171;-76
2020/12/30 11:59:43;;;;;;;34.13;20.27;;;4.50;99.90;;;;;;4995606;28;20172;-76
2020/12/30 12:02:09;;;;;;;30.07;17.77;;;4.50;99.90;;;;;;4995673;28;20167;-76
2020/12/30 12:04:34;;;;;;;32.10;20.20;;;4.50;99.90;;;;;;4995592;28;20273;-76
2020/12/30 12:07:00;;;;;;;36.13;20.77;;;4.50;99.90;;;;;;4995114;28;20202;-76
2020/12/30 12:09:26;;;;;;;37.10;21.53;;;4.40;99.90;;;;;;5012067;28;20176;-76
2020/12/30 12:11:52;;;;;;;34.77;19.73;;;4.40;99.90;;;;;;4995367;28;20186;-77
2020/12/30 12:14:18;;;;;;;31.80;19.83;;;4.40;99.90;;;;;;5011913;28;20465;-76
2020/12/30 12:16:52;;;;;;;37.33;22.33;;;4.40;99.90;;;;;;4995396;28;20275;-76
2020/12/30 12:19:18;;;;;;;35.03;20.40;;;4.30;99.90;;;;;;4995883;28;20548;-76
2020/12/30 12:21:44;;;;;;;35.83;21.60;;;4.30;99.90;;;;;;4995179;28;20179;-76
2020/12/30 12:24:11;;;;;;;36.50;20.50;;;4.30;99.90;;;;;;4995472;28;20325;-76
2020/12/30 12:26:37;;;;;;;35.90;21.43;;;4.40;99.90;;;;;;4995376;28;20694;-76
2020/12/30 12:29:17;;;;;;;40.87;22.07;;;4.30;99.90;;;;;;4995150;28;20212;-76
2020/12/30 12:31:43;;;;;;;37.80;21.37;;;4.30;99.90;;;;;;5011420;28;20179;-76
2020/12/30 12:34:08;;;;;;;39.20;23.27;;;4.30;99.90;;;;;;4995046;28;20196;-76